createdAt,value
2022-11-16T00:02:07.857Z,5.80
2022-11-16T00:04:34.908Z,5.47
2022-11-16T00:07:05.027Z,5.65
2022-11-16T00:09:32.934Z,7.50
2022-11-16T00:12:04.318Z,5.20
2022-11-16T00:14:34.989Z,6.18
2022-11-16T00:17:03.255Z,6.65
2022-11-16T00:19:30.825Z,5.60
2022-11-16T00:21:58.147Z,8.23
2022-11-16T00:24:25.116Z,4.35
2022-11-16T00:26:55.155Z,4.80
2022-11-16T00:29:25.466Z,7.57
2022-11-16T00:31:54.108Z,6.13
2022-11-16T00:34:22.638Z,4.72
2022-11-16T00:36:49.855Z,5.55
2022-11-16T00:39:17.965Z,4.88
2022-11-16T00:41:45.419Z,3.45
2022-11-16T00:44:12.348Z,3.03
2022-11-16T00:46:40.138Z,3.10
2022-11-16T00:49:07.747Z,4.72
2022-11-16T00:51:36.215Z,4.45
2022-11-16T00:54:05.752Z,3.83
2022-11-16T00:56:32.666Z,3.78
2022-11-16T00:58:59.573Z,4.05
2022-11-16T01:01:26.699Z,3.92
2022-11-16T01:03:53.802Z,3.78
2022-11-16T01:06:20.643Z,3.05
2022-11-16T01:08:48.209Z,3.42
2022-11-16T01:11:35.281Z,3.28
2022-11-16T01:14:05.937Z,3.22
2022-11-16T01:16:33.101Z,3.08
2022-11-16T01:19:00.451Z,5.50
2022-11-16T01:21:27.681Z,5.10
2022-11-16T01:23:57.083Z,4.13
2022-11-16T01:26:25.096Z,4.93
2022-11-16T01:28:52.390Z,4.68
2022-11-16T01:31:19.320Z,4.97
2022-11-16T01:33:46.112Z,3.25
2022-11-16T01:36:15.026Z,2.90
2022-11-16T01:38:46.846Z,3.47
2022-11-16T01:41:18.022Z,1.92
2022-11-16T01:44:15.106Z,2.78
2022-11-16T01:46:42.397Z,5.15
2022-11-16T01:49:14.750Z,3.90
2022-11-16T01:51:48.141Z,1.55
2022-11-16T01:54:15.289Z,2.10
2022-11-16T01:56:45.559Z,2.13
2022-11-16T01:59:13.869Z,2.03
2022-11-16T02:01:41.001Z,1.88
2022-11-16T02:04:11.769Z,1.95
2022-11-16T02:07:17.119Z,2.38
2022-11-16T02:10:36.041Z,3.00
2022-11-16T02:13:22.330Z,2.75
2022-11-16T02:16:27.314Z,3.70
2022-11-16T02:19:41.551Z,4.93
2022-11-16T02:22:25.324Z,3.80
2022-11-16T02:25:34.021Z,4.47
2022-11-16T02:28:26.525Z,4.00
2022-11-16T02:30:56.303Z,3.33
2022-11-16T02:33:30.963Z,5.28
2022-11-16T02:36:02.830Z,4.53
2022-11-16T02:38:36.338Z,4.47
2022-11-16T02:41:16.599Z,4.03
2022-11-16T02:43:47.844Z,3.30
2022-11-16T02:46:27.273Z,5.63
2022-11-16T02:48:59.092Z,4.70
2022-11-16T02:51:28.430Z,5.07
2022-11-16T02:54:13.117Z,4.07
2022-11-16T02:57:12.328Z,4.22
2022-11-16T02:59:50.633Z,9.73
2022-11-16T03:02:39.958Z,4.82
2022-11-16T03:05:39.197Z,3.03
2022-11-16T03:08:25.845Z,3.97
2022-11-16T03:11:19.532Z,3.78
2022-11-16T03:13:47.458Z,2.55
2022-11-16T03:16:38.394Z,2.28
2022-11-16T03:19:15.381Z,3.58
2022-11-16T03:21:52.399Z,1.88
2022-11-16T03:24:20.358Z,2.17
2022-11-16T03:27:17.137Z,2.80
2022-11-16T03:30:29.671Z,2.53
2022-11-16T03:33:16.601Z,4.85
2022-11-16T03:36:23.301Z,5.65
2022-11-16T03:38:52.858Z,2.80
2022-11-16T03:41:22.888Z,2.95
2022-11-16T03:43:50.833Z,1.88
2022-11-16T03:46:18.120Z,1.55
2022-11-16T03:48:44.976Z,1.25
2022-11-16T03:51:12.444Z,1.70
2022-11-16T03:53:39.775Z,3.13
2022-11-16T03:56:07.070Z,3.50
2022-11-16T03:58:34.190Z,1.25
2022-11-16T04:01:03.443Z,1.75
2022-11-16T04:03:30.441Z,3.08
2022-11-16T04:06:16.414Z,1.45
2022-11-16T04:09:02.115Z,1.83
2022-11-16T04:11:48.071Z,0.80
2022-11-16T04:14:39.251Z,1.98
2022-11-16T04:17:35.753Z,3.28
2022-11-16T04:20:22.165Z,1.02
2022-11-16T04:23:46.812Z,0.77
2022-11-16T04:26:13.804Z,0.98
2022-11-16T04:28:41.436Z,1.58
2022-11-16T04:31:26.543Z,1.92
2022-11-16T04:34:12.453Z,2.92
2022-11-16T04:36:57.666Z,1.98
2022-11-16T04:39:24.529Z,1.85
2022-11-16T04:42:10.023Z,1.98
2022-11-16T04:44:55.539Z,3.47
2022-11-16T04:47:22.377Z,2.40
2022-11-16T04:49:49.222Z,3.83
2022-11-16T04:52:16.084Z,4.15
2022-11-16T04:54:42.922Z,3.75
2022-11-16T04:57:09.868Z,2.05
2022-11-16T04:59:36.695Z,3.70
2022-11-16T05:02:09.798Z,3.85
2022-11-16T05:04:42.077Z,7.13
2022-11-16T05:07:12.113Z,4.90
2022-11-16T05:09:43.077Z,3.67
2022-11-16T05:12:12.016Z,5.13
2022-11-16T05:14:38.885Z,4.03
2022-11-16T05:17:05.820Z,4.38
2022-11-16T05:19:51.625Z,3.88
2022-11-16T05:22:18.505Z,3.13
2022-11-16T05:24:45.776Z,4.78
2022-11-16T05:27:15.956Z,5.15
2022-11-16T05:29:43.458Z,4.18
2022-11-16T05:32:12.928Z,7.10
2022-11-16T05:34:40.239Z,4.78
2022-11-16T05:37:07.519Z,4.97
2022-11-16T05:39:34.658Z,6.63
2022-11-16T05:42:02.062Z,5.47
2022-11-16T05:44:28.969Z,8.15
2022-11-16T05:46:56.144Z,6.25
2022-11-16T05:49:23.740Z,5.53
2022-11-16T05:51:50.807Z,6.93
2022-11-16T05:54:25.888Z,5.28
2022-11-16T05:56:53.702Z,3.97
2022-11-16T05:59:22.387Z,5.22
2022-11-16T06:01:50.331Z,6.47
2022-11-16T06:04:24.363Z,6.82
2022-11-16T06:06:51.892Z,8.73
2022-11-16T06:09:19.076Z,10.98
2022-11-16T06:11:46.175Z,4.43
2022-11-16T06:14:13.032Z,5.55
2022-11-16T06:16:39.863Z,10.00
2022-11-16T06:19:06.685Z,6.30
2022-11-16T06:21:33.649Z,14.43
2022-11-16T06:24:01.449Z,8.13
2022-11-16T06:26:28.294Z,11.15
2022-11-16T06:28:55.190Z,7.50
2022-11-16T06:31:22.542Z,8.52
2022-11-16T06:33:49.378Z,7.40
2022-11-16T06:36:16.485Z,3.90
2022-11-16T06:38:43.335Z,7.53
2022-11-16T06:41:10.151Z,10.25
2022-11-16T06:43:37.000Z,8.50
2022-11-16T06:46:04.074Z,12.70
2022-11-16T06:48:31.510Z,9.40
2022-11-16T06:50:58.602Z,8.73
2022-11-16T06:53:29.207Z,11.35
2022-11-16T06:56:05.328Z,11.00
2022-11-16T06:58:33.587Z,6.40
2022-11-16T07:01:08.729Z,9.10
2022-11-16T07:03:35.690Z,10.40
2022-11-16T07:06:13.401Z,9.93
2022-11-16T07:08:40.539Z,7.10
2022-11-16T07:11:10.891Z,9.95
2022-11-16T07:13:39.129Z,10.90
2022-11-16T07:16:08.902Z,6.47
2022-11-16T07:18:38.108Z,10.75
2022-11-16T07:21:15.190Z,8.32
2022-11-16T07:23:42.676Z,12.07
2022-11-16T07:26:10.836Z,10.98
2022-11-16T07:28:40.919Z,12.15
2022-11-16T07:31:12.565Z,9.15
2022-11-16T07:33:39.802Z,7.78
2022-11-16T07:36:11.847Z,7.97
2022-11-16T07:38:39.565Z,13.17
2022-11-16T07:41:17.578Z,9.02
2022-11-16T07:43:52.579Z,11.93
2022-11-16T07:46:46.522Z,14.27
2022-11-16T07:49:18.625Z,16.95
2022-11-16T07:51:46.798Z,13.38
2022-11-16T07:54:14.939Z,7.63
2022-11-16T07:56:42.435Z,9.80
2022-11-16T07:59:09.385Z,9.02
2022-11-16T08:01:36.278Z,7.70
2022-11-16T08:04:03.478Z,17.88
2022-11-16T08:06:31.822Z,8.60
2022-11-16T08:08:59.563Z,9.95
2022-11-16T08:11:27.100Z,9.43
2022-11-16T08:13:54.072Z,5.45
2022-11-16T08:16:22.965Z,9.38
2022-11-16T08:18:49.988Z,9.75
2022-11-16T08:21:19.161Z,12.15
2022-11-16T08:23:46.560Z,13.18
2022-11-16T08:26:19.869Z,17.38
2022-11-16T08:28:48.255Z,9.55
2022-11-16T08:31:18.917Z,11.90
2022-11-16T08:33:45.829Z,9.90
2022-11-16T08:36:17.281Z,6.90
2022-11-16T08:38:49.406Z,12.00
2022-11-16T08:41:17.730Z,7.57
2022-11-16T08:43:47.122Z,10.10
2022-11-16T08:46:14.545Z,12.68
2022-11-16T08:48:41.449Z,7.75
2022-11-16T08:51:20.543Z,9.65
2022-11-16T08:53:49.460Z,10.18
2022-11-16T08:56:18.537Z,11.55
2022-11-16T08:58:51.336Z,12.35
2022-11-16T09:01:24.033Z,10.85
2022-11-16T09:03:52.943Z,17.05
2022-11-16T09:06:22.016Z,8.05
2022-11-16T09:08:49.076Z,11.52
2022-11-16T09:11:21.002Z,8.32
2022-11-16T09:13:50.613Z,17.77
2022-11-16T09:16:20.641Z,11.25
2022-11-16T09:18:50.445Z,12.45
2022-11-16T09:21:26.110Z,11.43
2022-11-16T09:23:54.829Z,10.63
2022-11-16T09:26:24.175Z,7.20
2022-11-16T09:28:58.061Z,9.25
2022-11-16T09:31:29.573Z,12.85
2022-11-16T09:33:58.877Z,7.25
2022-11-16T09:36:29.469Z,16.80
2022-11-16T09:41:47.436Z,11.05
2022-11-16T09:44:35.782Z,10.25
2022-11-16T09:47:02.701Z,6.80
2022-11-16T09:49:35.391Z,11.50
2022-11-16T09:52:08.616Z,9.77
2022-11-16T09:54:40.408Z,9.55
2022-11-16T09:57:12.735Z,9.20
2022-11-16T09:59:54.570Z,13.18
2022-11-16T10:02:25.572Z,13.32
2022-11-16T10:05:11.781Z,10.85
2022-11-16T10:07:48.555Z,10.25
2022-11-16T10:10:30.561Z,7.65
2022-11-16T10:13:31.318Z,8.95
2022-11-16T10:16:13.318Z,12.65
2022-11-16T10:19:13.028Z,10.80
2022-11-16T10:22:08.748Z,8.75
2022-11-16T10:25:00.757Z,9.93
2022-11-16T10:28:04.861Z,10.32
2022-11-16T10:30:40.361Z,9.50
2022-11-16T10:33:12.805Z,12.20
2022-11-16T10:35:54.964Z,14.13
2022-11-16T10:38:28.069Z,9.48
2022-11-16T10:41:20.146Z,10.23
2022-11-16T10:43:48.807Z,10.43
2022-11-16T10:46:24.606Z,9.55
2022-11-16T10:49:15.914Z,7.22
2022-11-16T10:51:43.390Z,9.32
2022-11-16T10:54:15.172Z,7.82
2022-11-16T10:56:48.798Z,8.43
2022-11-16T10:59:19.365Z,8.50
2022-11-16T11:01:57.812Z,11.75
2022-11-16T11:04:30.153Z,8.68
2022-11-16T11:07:21.639Z,6.60
2022-11-16T11:09:55.487Z,8.90
2022-11-16T11:12:40.586Z,8.50
2022-11-16T11:15:27.316Z,4.47
2022-11-16T11:18:31.714Z,7.75
2022-11-16T11:21:06.647Z,9.40
2022-11-16T11:23:47.542Z,16.73
2022-11-16T11:26:37.225Z,10.43
2022-11-16T11:29:09.539Z,7.15
2022-11-16T11:31:43.933Z,11.07
2022-11-16T11:34:31.267Z,7.32
2022-11-16T11:37:04.247Z,8.35
2022-11-16T11:39:36.773Z,12.10
2022-11-16T11:42:12.996Z,7.55
2022-11-16T11:44:57.311Z,9.27
2022-11-16T11:48:04.031Z,6.18
2022-11-16T11:50:55.664Z,9.55
2022-11-16T11:53:55.385Z,7.90
2022-11-16T11:56:23.357Z,8.25
2022-11-16T11:58:51.918Z,8.30
2022-11-16T12:01:40.173Z,9.68
2022-11-16T12:04:50.163Z,6.90
2022-11-16T12:07:50.020Z,5.82
2022-11-16T12:10:52.096Z,7.00
2022-11-16T12:14:06.684Z,8.07
2022-11-16T12:17:08.484Z,7.65
2022-11-16T12:19:59.579Z,7.95
2022-11-16T12:22:39.459Z,8.98
2022-11-16T12:26:12.076Z,8.88
2022-11-16T12:29:03.802Z,10.20
2022-11-16T12:31:59.819Z,11.18
2022-11-16T12:34:35.481Z,12.18
2022-11-16T12:37:09.270Z,8.35
2022-11-16T12:39:49.984Z,10.02
2022-11-16T12:42:33.637Z,9.75
2022-11-16T12:45:16.576Z,9.52
2022-11-16T12:47:55.564Z,6.35
2022-11-16T12:50:50.056Z,10.25
2022-11-16T12:53:47.776Z,10.30
2022-11-16T12:56:35.643Z,10.40
2022-11-16T12:59:41.432Z,12.60
2022-11-16T13:02:28.160Z,14.77
2022-11-16T13:05:01.789Z,8.45
2022-11-16T13:07:38.689Z,5.60
2022-11-16T13:10:17.830Z,10.35
2022-11-16T13:12:52.671Z,7.15
2022-11-16T13:15:34.003Z,14.35
2022-11-16T13:18:04.320Z,8.93
2022-11-16T13:20:53.128Z,10.38
2022-11-16T13:24:16.129Z,6.68
2022-11-16T13:27:10.815Z,9.20
2022-11-16T13:29:56.766Z,6.63
2022-11-16T13:33:27.863Z,6.63
2022-11-16T13:35:54.991Z,11.18
2022-11-16T13:38:53.376Z,8.63
2022-11-16T13:41:38.583Z,6.20
2022-11-16T13:44:20.609Z,8.93
2022-11-16T13:47:04.093Z,4.93
2022-11-16T13:49:38.187Z,11.23
2022-11-16T13:52:23.270Z,4.75
2022-11-16T13:54:55.430Z,7.35
2022-11-16T13:57:34.619Z,8.65
2022-11-16T14:00:01.494Z,8.02
2022-11-16T14:02:34.997Z,7.88
2022-11-16T14:05:34.033Z,9.38
2022-11-16T14:08:26.594Z,7.07
2022-11-16T14:10:53.600Z,9.05
2022-11-16T14:13:47.216Z,6.78
2022-11-16T14:16:20.112Z,7.95
2022-11-16T14:18:59.168Z,8.38
2022-11-16T14:21:26.814Z,6.72
2022-11-16T14:23:53.596Z,7.28
2022-11-16T14:26:32.346Z,10.35
2022-11-16T14:29:29.468Z,9.70
2022-11-16T14:31:59.244Z,7.70
2022-11-16T14:34:43.866Z,11.70
2022-11-16T14:37:37.294Z,7.15
2022-11-16T14:40:16.424Z,8.43
2022-11-16T14:43:15.878Z,9.05
2022-11-16T14:45:49.265Z,10.73
2022-11-16T14:48:19.814Z,7.88
2022-11-16T14:51:08.942Z,11.60
2022-11-16T14:53:40.650Z,10.23
2022-11-16T14:56:10.856Z,5.13
2022-11-16T14:58:39.018Z,8.38
2022-11-16T15:01:13.255Z,9.38
2022-11-16T15:04:04.353Z,6.90
2022-11-16T15:06:49.201Z,6.72
2022-11-16T15:09:22.137Z,7.32
2022-11-16T15:14:53.665Z,12.23
2022-11-16T15:17:30.064Z,7.40
2022-11-16T15:20:13.497Z,9.43
2022-11-16T15:22:43.855Z,8.27
2022-11-16T15:25:31.943Z,5.78
2022-11-16T15:28:02.025Z,8.25
2022-11-16T15:30:37.070Z,6.25
2022-11-16T15:33:11.061Z,8.43
2022-11-16T15:35:38.870Z,5.78
2022-11-16T15:38:21.077Z,12.80
2022-11-16T15:40:56.502Z,5.67
2022-11-16T15:43:35.949Z,8.05
2022-11-16T15:46:08.836Z,8.07
2022-11-16T15:48:38.683Z,6.43
2022-11-16T15:51:06.323Z,5.82
2022-11-16T15:53:42.667Z,8.13
2022-11-16T15:56:27.554Z,8.20
2022-11-16T15:59:01.646Z,6.57
2022-11-16T16:01:30.362Z,9.07
2022-11-16T16:04:07.218Z,6.82
2022-11-16T16:06:59.300Z,10.68
2022-11-16T16:09:35.088Z,8.07
2022-11-16T16:12:24.580Z,9.05
2022-11-16T16:14:52.762Z,13.15
2022-11-16T16:17:28.713Z,9.23
2022-11-16T16:20:04.051Z,10.55
2022-11-16T16:22:41.394Z,8.23
2022-11-16T16:25:36.870Z,8.80
2022-11-16T16:28:04.917Z,10.52
2022-11-16T16:30:34.632Z,8.45
2022-11-16T16:33:02.288Z,11.18
2022-11-16T16:35:29.349Z,8.98
2022-11-16T16:38:01.243Z,10.02
2022-11-16T16:40:29.384Z,7.00
2022-11-16T16:42:57.813Z,8.45
2022-11-16T16:45:39.914Z,8.55
2022-11-16T16:48:09.080Z,9.35
2022-11-16T16:50:36.691Z,9.23
2022-11-16T16:53:04.069Z,9.80
2022-11-16T16:55:36.787Z,9.27
2022-11-16T16:58:05.882Z,8.82
2022-11-16T17:00:32.933Z,7.07
2022-11-16T17:02:59.783Z,11.25
2022-11-16T17:05:26.716Z,7.32
2022-11-16T17:07:56.770Z,5.75
2022-11-16T17:10:24.011Z,7.63
2022-11-16T17:12:54.665Z,11.00
2022-11-16T17:15:21.997Z,8.35
2022-11-16T17:17:48.971Z,7.97
2022-11-16T17:20:16.445Z,11.18
2022-11-16T17:22:44.023Z,9.70
2022-11-16T17:25:11.224Z,8.82
2022-11-16T17:27:38.546Z,7.97
2022-11-16T17:30:06.189Z,5.05
2022-11-16T17:32:33.046Z,8.63
2022-11-16T17:34:59.911Z,8.57
2022-11-16T17:37:26.817Z,7.97
2022-11-16T17:39:53.753Z,13.35
2022-11-16T17:42:20.628Z,9.82
2022-11-16T17:44:47.563Z,13.40
2022-11-16T17:47:14.447Z,8.05
2022-11-16T17:49:41.441Z,12.60
2022-11-16T17:52:08.268Z,11.73
2022-11-16T17:54:35.100Z,8.93
2022-11-16T17:57:02.173Z,5.72
2022-11-16T17:59:30.049Z,5.68
2022-11-16T18:01:58.067Z,8.02
2022-11-16T18:04:25.390Z,6.13
2022-11-16T18:06:52.309Z,6.80
2022-11-16T18:09:19.274Z,8.90
2022-11-16T18:11:46.268Z,7.10
2022-11-16T18:14:13.374Z,3.72
2022-11-16T18:16:44.167Z,8.60
2022-11-16T18:19:17.817Z,8.07
2022-11-16T18:21:45.957Z,6.53
2022-11-16T18:24:13.985Z,7.97
2022-11-16T18:26:42.242Z,7.32
2022-11-16T18:29:12.814Z,8.20
2022-11-16T18:31:39.782Z,8.88
2022-11-16T18:34:06.741Z,7.97
2022-11-16T18:36:33.810Z,8.25
2022-11-16T18:39:00.664Z,8.85
2022-11-16T18:41:29.178Z,8.27
2022-11-16T18:43:59.025Z,6.28
2022-11-16T18:46:31.928Z,10.32
2022-11-16T18:51:28.743Z,7.10
2022-11-16T18:53:55.953Z,5.10
2022-11-16T18:56:23.466Z,9.48
2022-11-16T18:58:52.284Z,8.15
2022-11-16T19:01:24.219Z,8.70
2022-11-16T19:03:53.260Z,8.30
2022-11-16T19:06:20.829Z,11.48
2022-11-16T19:08:55.771Z,11.70
2022-11-16T19:11:24.037Z,11.65
2022-11-16T19:13:57.872Z,14.98
2022-11-16T19:16:25.013Z,12.48
2022-11-16T19:18:53.077Z,15.98
2022-11-16T19:21:21.914Z,15.18
2022-11-16T19:23:52.277Z,13.30
2022-11-16T19:26:23.124Z,10.95
2022-11-16T19:28:51.319Z,9.40
2022-11-16T19:31:28.725Z,10.02
2022-11-16T19:34:02.254Z,6.97
2022-11-16T19:36:30.817Z,7.90
2022-11-16T19:38:58.447Z,8.85
2022-11-16T19:41:26.437Z,9.50
2022-11-16T19:43:58.737Z,9.70
2022-11-16T19:46:33.866Z,11.93
2022-11-16T19:49:01.348Z,7.60
2022-11-16T19:51:33.936Z,8.18
2022-11-16T19:54:02.636Z,6.82
2022-11-16T19:56:30.021Z,9.23
2022-11-16T19:58:57.241Z,14.40
2022-11-16T20:01:28.667Z,8.85
2022-11-16T20:03:59.112Z,9.40
2022-11-16T20:06:29.548Z,6.68
2022-11-16T20:09:00.978Z,7.63
2022-11-16T20:11:35.785Z,7.65
2022-11-16T20:14:06.178Z,7.30
2022-11-16T20:16:39.050Z,12.82
2022-11-16T20:19:07.883Z,11.70
2022-11-16T20:21:38.600Z,10.65
2022-11-16T20:24:08.629Z,9.20
2022-11-16T20:26:40.515Z,9.35
2022-11-16T20:29:07.344Z,7.80
2022-11-16T20:31:34.757Z,9.98
2022-11-16T20:34:04.588Z,5.47
2022-11-16T20:36:33.099Z,5.60
2022-11-16T20:39:01.005Z,7.63
2022-11-16T20:41:32.704Z,8.60
2022-11-16T20:44:01.436Z,7.00
2022-11-16T20:46:31.876Z,4.72
2022-11-16T20:49:01.664Z,8.02
2022-11-16T20:51:30.500Z,4.18
2022-11-16T20:53:57.926Z,5.88
2022-11-16T20:56:25.637Z,7.63
2022-11-16T20:58:52.678Z,7.07
2022-11-16T21:01:28.861Z,6.45
2022-11-16T21:04:00.618Z,6.82
2022-11-16T21:06:28.473Z,4.80
2022-11-16T21:08:56.050Z,5.03
2022-11-16T21:11:26.388Z,3.92
2022-11-16T21:14:12.192Z,7.05
2022-11-16T21:16:39.758Z,8.55
2022-11-16T21:19:07.024Z,5.78
2022-11-16T21:21:34.263Z,7.18
2022-11-16T21:24:01.280Z,5.85
2022-11-16T21:26:31.793Z,6.72
2022-11-16T21:29:00.441Z,11.60
2022-11-16T21:31:31.601Z,8.05
2022-11-16T21:34:00.774Z,6.57
2022-11-16T21:36:30.676Z,8.80
2022-11-16T21:39:00.748Z,7.78
2022-11-16T21:41:28.425Z,11.82
2022-11-16T21:43:55.627Z,6.63
2022-11-16T21:46:25.531Z,7.68
2022-11-16T21:48:54.287Z,7.18
2022-11-16T21:51:25.171Z,9.20
2022-11-16T21:53:52.553Z,4.80
2022-11-16T21:56:22.289Z,5.82
2022-11-16T21:58:53.087Z,5.45
2022-11-16T22:01:21.244Z,5.30
2022-11-16T22:04:08.222Z,7.50
2022-11-16T22:06:53.995Z,5.00
2022-11-16T22:09:21.042Z,6.32
2022-11-16T22:11:48.135Z,8.68
2022-11-16T22:14:14.976Z,6.13
2022-11-16T22:16:41.819Z,7.95
2022-11-16T22:19:08.665Z,6.03
2022-11-16T22:21:35.448Z,3.78
2022-11-16T22:24:02.801Z,7.07
2022-11-16T22:26:29.784Z,8.05
2022-11-16T22:28:58.090Z,5.72
2022-11-16T22:31:24.995Z,7.05
2022-11-16T22:33:53.796Z,4.90
2022-11-16T22:36:20.727Z,7.55
2022-11-16T22:38:47.548Z,4.75
2022-11-16T22:41:14.393Z,3.95
2022-11-16T22:43:41.350Z,4.18
2022-11-16T22:46:10.887Z,5.90
2022-11-16T22:48:40.210Z,4.95
2022-11-16T22:51:14.006Z,4.65
2022-11-16T22:53:40.832Z,5.47
2022-11-16T22:56:09.844Z,5.28
2022-11-16T22:58:40.449Z,6.53
2022-11-16T23:01:09.112Z,6.53
2022-11-16T23:03:37.337Z,4.78
2022-11-16T23:06:06.470Z,8.02
2022-11-16T23:08:34.783Z,6.25
2022-11-16T23:11:35.312Z,7.00
2022-11-16T23:14:27.063Z,7.93
2022-11-16T23:16:54.010Z,5.40
2022-11-16T23:19:40.980Z,6.97
2022-11-16T23:22:31.763Z,4.13
2022-11-16T23:25:17.433Z,4.63
2022-11-16T23:28:08.224Z,7.47
2022-11-16T23:30:36.607Z,7.35
2022-11-16T23:33:03.953Z,6.03
2022-11-16T23:35:30.811Z,5.70
2022-11-16T23:38:03.258Z,8.35
2022-11-16T23:40:38.957Z,10.75
2022-11-16T23:43:25.175Z,7.22
2022-11-16T23:45:52.060Z,7.40
2022-11-16T23:48:19.713Z,4.70
2022-11-16T23:50:46.812Z,8.10
2022-11-16T23:53:14.488Z,6.85
2022-11-16T23:55:41.789Z,4.05
2022-11-16T23:58:14.543Z,5.53
